»·PEaware :: EJA731 KOAK-KSBA

EJA731 :: KOAK-KSBA

FLIGHT INFORMATION

Flight Status: Arrived
Operator:
Netjets Aviation
More flights by this operator :: More flights under this callsign
Pilot: Anonymous 10623 (10623)
Aircraft: BOMBARDIER BD-100 CHALLENGER 300
(CL30)
More flights by this aircraft type
Origin: KOAK Metro Oakland Intl
United States
Destination: KSBA Santa Barbara Mun
United States
More flights between these airports :: More routes between these airports
Route: CNDEL5 YYUNG GVO HABUT
File this flight plan on PilotEdge
Remarks: RMK / SIMBRIEF
Altitude:
(Current/Filed)
37,000ft
Speed:
(Current/Filed)
481kts
Departed: 01-Sep-21 02:30 PM
Arrived: 01-Sep-21 03:23 PM
Distance/Time
Traveled:
229nm/0:52
Distance/Time
To Go:
Arrived

Flight Plot

Page will automatically refresh every two minutes.

Flight plan parsing failed; only flown route is shown


Map Options




Map Legend


Flown Route
Filed Route
Departure Airport
Arrival Airport
Navaid (VOR, NDB)
Fix

Horizontal Profiles

Position Reports

Time Latitude Longitude Heading Altitude Ground
Speed
01-Sep-21 13:53 37.727470 -122.207215 0 10ft 0kts
01-Sep-21 13:54 37.727470 -122.207215 44 10ft 0kts
01-Sep-21 13:55 37.727470 -122.207215 44 10ft 0kts
01-Sep-21 13:56 37.727470 -122.207215 44 10ft 0kts
01-Sep-21 13:57 37.727470 -122.207215 44 10ft 0kts
01-Sep-21 13:58 37.727470 -122.207215 44 10ft 0kts
01-Sep-21 13:59 37.727470 -122.207215 44 10ft 0kts
01-Sep-21 14:01 37.727470 -122.207215 44 10ft 0kts
01-Sep-21 14:02 37.727470 -122.207215 44 10ft 0kts
01-Sep-21 14:03 37.727470 -122.207215 44 10ft 0kts
01-Sep-21 14:04 37.727470 -122.207215 44 10ft 0kts
01-Sep-21 14:05 37.727470 -122.207215 44 10ft 0kts
01-Sep-21 14:06 37.727470 -122.207215 44 10ft 0kts
01-Sep-21 14:07 37.727470 -122.207215 44 10ft 0kts
01-Sep-21 14:08 37.727470 -122.207215 44 10ft 0kts
01-Sep-21 14:09 37.727470 -122.207215 44 10ft 0kts
01-Sep-21 14:10 37.727470 -122.207215 44 10ft 0kts
01-Sep-21 14:11 37.727470 -122.207215 44 10ft 0kts
01-Sep-21 14:12 37.727470 -122.207215 44 10ft 0kts
01-Sep-21 14:13 37.727470 -122.207215 44 10ft 0kts
01-Sep-21 14:14 37.727470 -122.207215 44 10ft 0kts
01-Sep-21 14:15 37.727470 -122.207215 44 10ft 0kts
01-Sep-21 14:16 37.727470 -122.207215 44 10ft 0kts
01-Sep-21 14:17 37.727470 -122.207215 44 10ft 0kts
01-Sep-21 14:18 37.727470 -122.207215 44 10ft 0kts
01-Sep-21 14:19 37.727470 -122.207215 44 10ft 0kts
01-Sep-21 14:20 37.727470 -122.207215 44 10ft 0kts
01-Sep-21 14:21 37.727470 -122.207215 44 10ft 0kts
01-Sep-21 14:22 37.727470 -122.207215 44 10ft 0kts
01-Sep-21 14:23 37.727470 -122.207215 44 10ft 0kts
01-Sep-21 14:24 37.727358 -122.207068 191 10ft 0kts
01-Sep-21 14:24 37.727176 -122.207109 189 10ft 0kts
01-Sep-21 14:26 37.726086 -122.205453 110 10ft 4kts
01-Sep-21 14:27 37.725780 -122.204600 142 11ft 0kts
01-Sep-21 14:28 37.725780 -122.204600 142 11ft 0kts
01-Sep-21 14:28 37.724924 -122.205061 277 11ft 4kts
01-Sep-21 14:29 37.733024 -122.231597 290 1232ft 152kts
01-Sep-21 14:31 37.764334 -122.303708 299 2135ft 247kts
01-Sep-21 14:31 37.793781 -122.362370 273 3293ft 229kts
01-Sep-21 14:32 37.745227 -122.402990 195 6222ft 237kts
01-Sep-21 14:33 37.680881 -122.421461 194 9332ft 247kts
01-Sep-21 14:34 37.603192 -122.443149 193 10010ft 330kts
01-Sep-21 14:35 37.510454 -122.468871 193 9999ft 345kts
01-Sep-21 14:36 37.414415 -122.488606 190 11481ft 354kts
01-Sep-21 14:37 37.315940 -122.506934 190 14399ft 366kts
01-Sep-21 14:38 37.213234 -122.525992 190 17312ft 380kts
01-Sep-21 14:39 37.106864 -122.545649 191 20255ft 396kts
01-Sep-21 14:40 36.995535 -122.551398 159 22666ft 423kts
01-Sep-21 14:41 36.890785 -122.478642 153 24736ft 439kts
01-Sep-21 14:42 36.783782 -122.400633 153 26526ft 452kts
01-Sep-21 14:43 36.674152 -122.320540 153 28095ft 463kts
01-Sep-21 14:44 36.562307 -122.239021 153 29495ft 472kts
01-Sep-21 14:45 36.450050 -122.157472 154 30957ft 475kts
01-Sep-21 14:46 36.336679 -122.075401 154 32632ft 471kts
01-Sep-21 14:47 36.224537 -121.994493 155 34153ft 467kts
01-Sep-21 14:48 36.114416 -121.915314 155 35576ft 463kts
01-Sep-21 14:49 36.005744 -121.831231 143 36893ft 471kts
01-Sep-21 14:50 35.920509 -121.705792 133 36959ft 478kts
01-Sep-21 14:51 35.839194 -121.577294 133 36959ft 473kts
01-Sep-21 14:52 35.758937 -121.450325 132 36932ft 470kts
01-Sep-21 14:53 35.678640 -121.323713 133 35546ft 472kts
01-Sep-21 14:54 35.598299 -121.197470 132 33813ft 476kts
01-Sep-21 14:55 35.514950 -121.071695 140 31958ft 473kts
01-Sep-21 14:56 35.414691 -120.967032 143 29952ft 471kts
01-Sep-21 14:57 35.315131 -120.866762 143 28338ft 460kts
01-Sep-21 14:58 35.217419 -120.768919 142 26358ft 449kts
01-Sep-21 14:59 35.122957 -120.674714 142 23741ft 433kts
01-Sep-21 15:00 35.033053 -120.585280 141 20782ft 411kts
01-Sep-21 15:01 34.946979 -120.499927 141 17677ft 390kts
01-Sep-21 15:02 34.863824 -120.417695 142 14868ft 377kts
01-Sep-21 15:03 34.783762 -120.338736 143 12685ft 367kts
01-Sep-21 15:04 34.711058 -120.267187 143 12623ft 307kts
01-Sep-21 15:05 34.645842 -120.203215 143 11518ft 298kts
01-Sep-21 15:06 34.583949 -120.139392 132 10282ft 292kts
01-Sep-21 15:07 34.531378 -120.066054 132 9027ft 281kts
01-Sep-21 15:08 34.478589 -119.993441 132 9010ft 290kts
01-Sep-21 15:09 34.425761 -119.920996 131 8377ft 289kts
01-Sep-21 15:10 34.372966 -119.849295 131 6702ft 283kts
01-Sep-21 15:11 34.323622 -119.777254 126 5068ft 265kts
01-Sep-21 15:12 34.282941 -119.712176 126 4041ft 227kts
01-Sep-21 15:13 34.248144 -119.656829 126 3013ft 193kts
01-Sep-21 15:14 34.243339 -119.606808 41 3002ft 167kts
01-Sep-21 15:15 34.278949 -119.569570 41 3010ft 171kts
01-Sep-21 15:16 34.319764 -119.588378 321 3011ft 175kts
01-Sep-21 15:17 34.353210 -119.629069 295 3010ft 167kts
01-Sep-21 15:18 34.373085 -119.679548 294 2678ft 166kts
01-Sep-21 15:19 34.391152 -119.727632 292 1847ft 149kts
01-Sep-21 15:20 34.407879 -119.772007 292 1069ft 139kts
01-Sep-21 15:21 34.424327 -119.814390 289 388ft 137kts
01-Sep-21 15:22 34.427495 -119.852313 268 20ft 16kts
01-Sep-21 15:23 34.426404 -119.853541 85 20ft 6kts
01-Sep-21 15:24 34.426528 -119.847733 88 19ft 14kts
01-Sep-21 15:25 34.426640 -119.841998 87 19ft 17kts
01-Sep-21 15:26 34.426474 -119.838299 157 19ft 14kts
01-Sep-21 15:27 34.423186 -119.837354 180 19ft 9kts
01-Sep-21 15:28 34.421852 -119.836350 347 19ft 0kts
01-Sep-21 15:29 34.421852 -119.836350 347 20ft 0kts
01-Sep-21 15:30 34.421852 -119.836350 347 20ft 0kts
01-Sep-21 15:31 34.421852 -119.836350 347 20ft 0kts

Navigation Log

Ident Type
Flight plan parsing failed, navigation log unavailable